Larisa, Greece
Current Conditions -  °F | °C
As of 12:50 PM on Wednesday 26 Nov 2014 (Local Time) from LGLR Reporting Station
Drizzle Drizzle  
Wind Chill: 45°   Ceiling: 8000
Heat Index: 45°   Visibility: 3mi
Dew Point: 45°   Wind: 0mph
Humidity: 100%   Direction: NA
Pressure: 30.21"   Gusts: NA
Location:  39.64°N, 22.42°E
Report Text: LGLR 260950Z 00000KT 5000 DZ FEW008 SCT030 OVC080 07/07 Q1023 WHT
Loading
Personal Weather Stations






























Interactive Weather Map New forecast layout! Learn more

10-Day Weather Forecast

Advertisements
Track Severe Weather on mobile